createdAt,value
2018-05-08T00:01:09.344Z,101035.14
2018-05-08T00:03:37.716Z,101029.17
2018-05-08T00:06:06.346Z,101030.86
2018-05-08T00:08:34.528Z,101032.83
2018-05-08T00:11:02.932Z,101032.99
2018-05-08T00:13:31.536Z,101026.94
2018-05-08T00:15:59.757Z,101025.41
2018-05-08T00:18:28.041Z,101025.99
2018-05-08T00:20:56.620Z,101015.97
2018-05-08T00:23:24.810Z,101020.37
2018-05-08T00:25:53.130Z,101021.05
2018-05-08T00:28:21.696Z,101012.16
2018-05-08T00:30:49.900Z,101012.75
2018-05-08T00:33:35.404Z,101008.08
2018-05-08T00:36:09.061Z,101013.54
2018-05-08T00:38:37.852Z,101005.52
2018-05-08T00:41:06.475Z,100999.30
2018-05-08T00:43:34.669Z,100998.21
2018-05-08T00:46:02.983Z,100995.42
2018-05-08T00:48:31.752Z,100997.27
2018-05-08T00:50:59.968Z,100996.09
2018-05-08T00:53:28.182Z,100988.73
2018-05-08T00:55:56.845Z,100995.66
2018-05-08T00:58:25.147Z,100985.28
2018-05-08T01:00:53.338Z,100985.83
2018-05-08T01:03:22.006Z,100981.51
2018-05-08T01:05:50.187Z,100982.41
2018-05-08T01:08:18.412Z,100974.34
2018-05-08T01:10:47.090Z,100975.09
2018-05-08T01:13:15.274Z,100974.06
2018-05-08T01:15:43.659Z,100973.44
2018-05-08T01:18:12.453Z,100975.24
2018-05-08T01:20:40.670Z,100977.08
2018-05-08T01:23:08.849Z,100978.23
2018-05-08T01:25:37.563Z,100982.78
2018-05-08T01:28:05.745Z,100979.76
2018-05-08T01:30:33.979Z,100977.67
2018-05-08T01:33:02.797Z,100974.25
2018-05-08T01:35:30.998Z,100968.44
2018-05-08T01:37:59.171Z,100971.23
2018-05-08T01:40:27.893Z,100967.26
2018-05-08T01:42:56.209Z,100966.66
2018-05-08T01:45:24.374Z,100964.82
2018-05-08T01:47:53.110Z,100961.95
2018-05-08T01:50:21.312Z,100962.18
2018-05-08T01:52:49.504Z,100958.09
2018-05-08T01:55:18.371Z,100957.41
2018-05-08T01:57:46.557Z,100961.61
2018-05-08T02:00:14.766Z,100962.01
2018-05-08T02:02:44.458Z,100955.67
2018-05-08T02:05:12.680Z,100951.31
2018-05-08T02:07:40.881Z,100946.09
2018-05-08T02:10:09.369Z,100941.45
2018-05-08T02:12:37.553Z,100937.02
2018-05-08T02:15:05.848Z,100937.63
2018-05-08T02:17:34.508Z,100934.76
2018-05-08T02:20:02.726Z,100930.91
2018-05-08T02:22:31.038Z,100929.76
2018-05-08T02:24:59.719Z,100927.24
2018-05-08T02:27:27.924Z,100923.16
2018-05-08T02:29:56.268Z,100921.06
2018-05-08T02:32:24.803Z,100920.70
2018-05-08T02:34:53.034Z,100922.59
2018-05-08T02:37:21.346Z,100928.55
2018-05-08T02:39:50.059Z,100924.03
2018-05-08T02:42:18.243Z,100924.80
2018-05-08T02:44:46.578Z,100923.26
2018-05-08T02:47:15.177Z,100926.19
2018-05-08T02:49:43.432Z,100927.28
2018-05-08T02:52:11.832Z,100920.76
2018-05-08T02:54:40.444Z,100920.52
2018-05-08T02:57:08.655Z,100917.63
2018-05-08T02:59:36.958Z,100912.45
2018-05-08T03:02:05.539Z,100912.78
2018-05-08T03:04:55.767Z,100916.22
2018-05-08T03:07:30.055Z,100914.63
2018-05-08T03:09:58.225Z,100914.24
2018-05-08T03:12:26.457Z,100908.12
2018-05-08T03:14:55.238Z,100908.55
2018-05-08T03:17:23.441Z,100905.03
2018-05-08T03:19:51.690Z,100912.89
2018-05-08T03:22:20.423Z,100910.34
2018-05-08T03:24:48.565Z,100907.34
2018-05-08T03:27:16.824Z,100913.59
2018-05-08T03:29:45.601Z,100906.71
2018-05-08T03:32:13.755Z,100909.67
2018-05-08T03:34:41.944Z,100908.59
2018-05-08T03:37:10.739Z,100907.33
2018-05-08T03:39:39.027Z,100905.67
2018-05-08T03:42:07.219Z,100905.82
2018-05-08T03:44:36.097Z,100904.78
2018-05-08T03:47:04.257Z,100900.60
2018-05-08T03:49:32.453Z,100899.84
2018-05-08T03:52:01.061Z,100893.80
2018-05-08T03:54:29.236Z,100899.20
2018-05-08T03:56:57.546Z,100891.45
2018-05-08T03:59:26.317Z,100889.77
2018-05-08T04:02:06.403Z,100884.94
2018-05-08T04:04:46.362Z,100888.36
2018-05-08T04:07:26.460Z,100884.80
2018-05-08T04:09:54.653Z,100885.91
2018-05-08T04:12:23.091Z,100885.55
2018-05-08T04:14:51.760Z,100887.14
2018-05-08T04:17:19.938Z,100881.55
2018-05-08T04:19:49.063Z,100878.41
2018-05-08T04:22:17.771Z,100875.75
2018-05-08T04:24:46.880Z,100877.19
2018-05-08T04:27:15.679Z,100872.98
2018-05-08T04:29:44.816Z,100874.34
2018-05-08T04:32:13.470Z,100868.98
2018-05-08T04:34:42.135Z,100869.38
2018-05-08T04:37:10.343Z,100874.41
2018-05-08T04:39:38.624Z,100868.12
2018-05-08T04:42:07.445Z,100869.02
2018-05-08T04:44:35.641Z,100866.68
2018-05-08T04:47:04.503Z,100868.02
2018-05-08T04:49:33.147Z,100864.34
2018-05-08T04:52:01.394Z,100864.05
2018-05-08T04:54:29.626Z,100864.88
2018-05-08T04:56:58.267Z,100867.58
2018-05-08T04:59:26.482Z,100867.94
2018-05-08T05:01:54.778Z,100870.94
2018-05-08T05:04:23.421Z,100861.50
2018-05-08T05:06:51.690Z,100859.16
2018-05-08T05:09:20.024Z,100855.05
2018-05-08T05:11:48.661Z,100849.83
2018-05-08T05:14:16.897Z,100855.13
2018-05-08T05:16:45.141Z,100856.39
2018-05-08T05:19:13.751Z,100859.73
2018-05-08T05:21:41.961Z,100854.69
2018-05-08T05:24:10.417Z,100854.04
2018-05-08T05:26:38.950Z,100850.18
2018-05-08T05:29:07.226Z,100854.60
2018-05-08T05:31:35.610Z,100857.30
2018-05-08T05:34:04.253Z,100852.75
2018-05-08T05:36:32.460Z,100856.38
2018-05-08T05:39:00.727Z,100859.50
2018-05-08T05:41:29.236Z,100852.03
2018-05-08T05:43:57.486Z,100851.55
2018-05-08T05:46:25.930Z,100848.42
2018-05-08T05:48:59.722Z,100846.52
2018-05-08T05:51:27.935Z,100846.33
2018-05-08T05:53:56.154Z,100845.88
2018-05-08T05:56:24.967Z,100851.61
2018-05-08T05:58:53.187Z,100852.18
2018-05-08T06:01:21.381Z,100847.05
2018-05-08T06:03:50.077Z,100839.76
2018-05-08T06:06:18.328Z,100853.50
2018-05-08T06:08:46.512Z,100847.39
2018-05-08T06:11:15.257Z,100848.69
2018-05-08T06:13:43.512Z,100846.42
2018-05-08T06:16:11.726Z,100844.90
2018-05-08T06:18:40.343Z,100843.48
2018-05-08T06:21:08.585Z,100842.66
2018-05-08T06:23:36.767Z,100834.48
2018-05-08T06:26:05.218Z,100835.89
2018-05-08T06:28:33.522Z,100837.18
2018-05-08T06:31:01.888Z,100833.95
2018-05-08T06:33:30.692Z,100837.91
2018-05-08T06:35:58.910Z,100833.72
2018-05-08T06:38:27.089Z,100832.72
2018-05-08T06:40:55.805Z,100831.08
2018-05-08T06:43:24.091Z,100829.67
2018-05-08T06:45:53.649Z,100827.50
2018-05-08T06:48:33.159Z,100826.14
2018-05-08T06:51:30.465Z,100826.26
2018-05-08T06:54:05.708Z,100828.66
2018-05-08T06:56:43.972Z,100827.98
2018-05-08T06:59:17.641Z,100828.02
2018-05-08T07:01:53.612Z,100825.59
2018-05-08T07:04:26.418Z,100825.13
2018-05-08T07:07:07.294Z,100824.19
2018-05-08T07:09:39.387Z,100826.66
2018-05-08T07:12:11.111Z,100817.14
2018-05-08T07:14:43.554Z,100818.88
2018-05-08T07:17:12.239Z,100819.81
2018-05-08T07:19:42.520Z,100822.41
2018-05-08T07:22:11.352Z,100820.27
2018-05-08T07:24:39.550Z,100814.22
2018-05-08T07:27:07.867Z,100812.45
2018-05-08T07:29:36.368Z,100814.70
2018-05-08T07:32:04.558Z,100804.92
2018-05-08T07:34:33.163Z,100804.77
2018-05-08T07:37:01.782Z,100807.73
2018-05-08T07:39:29.989Z,100807.06
2018-05-08T07:41:58.259Z,100804.01
2018-05-08T07:44:26.880Z,100800.47
2018-05-08T07:46:55.085Z,100807.70
2018-05-08T07:49:23.331Z,100805.50
2018-05-08T07:51:51.844Z,100812.72
2018-05-08T07:54:19.996Z,100802.59
2018-05-08T07:56:48.288Z,100804.75
2018-05-08T07:59:17.025Z,100804.17
2018-05-08T08:01:45.301Z,100796.27
2018-05-08T08:04:13.517Z,100805.68
2018-05-08T08:06:42.123Z,100798.26
2018-05-08T08:09:10.319Z,100801.80
2018-05-08T08:11:38.690Z,100800.90
2018-05-08T08:14:07.210Z,100799.09
2018-05-08T08:16:35.417Z,100800.92
2018-05-08T08:19:03.810Z,100795.70
2018-05-08T08:21:32.496Z,100793.64
2018-05-08T08:24:00.706Z,100792.53
2018-05-08T08:26:29.054Z,100792.19
2018-05-08T08:28:57.627Z,100792.19
2018-05-08T08:31:25.875Z,100786.72
2018-05-08T08:33:54.259Z,100785.86
2018-05-08T08:36:22.830Z,100780.13
2018-05-08T08:38:51.094Z,100777.20
2018-05-08T08:41:19.319Z,100783.77
2018-05-08T08:43:48.026Z,100775.23
2018-05-08T08:46:16.207Z,100779.25
2018-05-08T08:48:44.653Z,100778.05
2018-05-08T08:51:13.270Z,100777.71
2018-05-08T08:53:41.469Z,100773.55
2018-05-08T08:56:09.869Z,100762.73
2018-05-08T08:58:38.403Z,100766.88
2018-05-08T09:01:06.584Z,100763.52
2018-05-08T09:03:34.983Z,100764.28
2018-05-08T09:06:04.595Z,100756.73
2018-05-08T09:08:33.042Z,100752.04
2018-05-08T09:11:01.209Z,100756.27
2018-05-08T09:13:29.416Z,100755.11
2018-05-08T09:15:58.183Z,100750.30
2018-05-08T09:18:26.386Z,100744.16
2018-05-08T09:20:54.556Z,100740.27
2018-05-08T09:23:22.771Z,100739.06
2018-05-08T09:25:50.981Z,100735.59
2018-05-08T09:28:19.458Z,100735.58
2018-05-08T09:30:47.686Z,100728.82
2018-05-08T09:33:15.877Z,100726.47
2018-05-08T09:35:44.327Z,100727.47
2018-05-08T09:38:12.562Z,100720.95
2018-05-08T09:40:41.046Z,100708.38
2018-05-08T09:43:09.454Z,100710.55
2018-05-08T09:45:37.667Z,100705.27
2018-05-08T09:48:06.130Z,100705.20
2018-05-08T09:50:34.688Z,100696.63
2018-05-08T09:53:02.900Z,100701.82
2018-05-08T09:55:31.228Z,100698.14
2018-05-08T09:57:59.883Z,100684.83
2018-05-08T10:00:28.135Z,100687.25
2018-05-08T10:02:56.598Z,100673.86
2018-05-08T10:05:25.031Z,100674.67
2018-05-08T10:07:53.254Z,100675.09
2018-05-08T10:10:21.485Z,100668.14
2018-05-08T10:12:50.198Z,100664.30
2018-05-08T10:15:18.456Z,100662.73
2018-05-08T10:17:46.973Z,100666.22
2018-05-08T10:20:15.630Z,100664.02
2018-05-08T10:22:43.877Z,100658.61
2018-05-08T10:25:12.084Z,100654.19
2018-05-08T10:27:40.435Z,100658.16
2018-05-08T10:30:08.632Z,100650.34
2018-05-08T10:32:37.073Z,100644.18
2018-05-08T10:35:05.716Z,100634.80
2018-05-08T10:37:33.930Z,100634.47
2018-05-08T10:40:02.170Z,100640.09
2018-05-08T10:42:30.795Z,100629.78
2018-05-08T10:44:58.998Z,100630.64
2018-05-08T10:47:27.418Z,100625.73
2018-05-08T10:49:55.910Z,100624.61
2018-05-08T10:52:24.123Z,100623.67
2018-05-08T10:54:52.535Z,100615.38
2018-05-08T10:57:21.062Z,100605.68
2018-05-08T10:59:49.289Z,100601.80
2018-05-08T11:02:17.611Z,100611.16
2018-05-08T11:04:46.255Z,100603.69
2018-05-08T11:07:14.460Z,100605.38
2018-05-08T11:09:42.875Z,100600.14
2018-05-08T11:12:11.375Z,100603.97
2018-05-08T11:14:39.566Z,100603.52
2018-05-08T11:17:07.971Z,100593.78
2018-05-08T11:19:36.586Z,100593.08
2018-05-08T11:22:04.772Z,100588.63
2018-05-08T11:24:33.178Z,100589.77
2018-05-08T11:27:01.691Z,100591.38
2018-05-08T11:29:30.550Z,100588.44
2018-05-08T11:31:58.747Z,100579.81
2018-05-08T11:34:27.171Z,100583.59
2018-05-08T11:36:55.468Z,100569.37
2018-05-08T11:39:23.691Z,100576.84
2018-05-08T11:41:52.278Z,100575.14
2018-05-08T11:44:20.513Z,100571.20
2018-05-08T11:46:48.693Z,100569.07
2018-05-08T11:49:17.140Z,100557.69
2018-05-08T11:51:45.376Z,100560.27
2018-05-08T11:54:13.685Z,100567.70
2018-05-08T11:56:42.234Z,100559.33
2018-05-08T11:59:10.437Z,100558.99
2018-05-08T12:01:38.755Z,100552.78
2018-05-08T12:04:07.404Z,100560.95
2018-05-08T12:06:35.605Z,100562.02
2018-05-08T12:09:04.046Z,100549.55
2018-05-08T12:11:32.575Z,100539.23
2018-05-08T12:14:00.783Z,100546.89
2018-05-08T12:16:29.266Z,100539.25
2018-05-08T12:18:57.828Z,100546.27
2018-05-08T12:21:26.053Z,100544.42
2018-05-08T12:23:54.471Z,100540.80
2018-05-08T12:26:22.983Z,100544.80
2018-05-08T12:28:51.190Z,100537.08
2018-05-08T12:31:19.459Z,100536.98
2018-05-08T12:33:48.046Z,100529.63
2018-05-08T12:36:16.315Z,100525.22
2018-05-08T12:38:44.700Z,100520.66
2018-05-08T12:41:13.354Z,100519.36
2018-05-08T12:43:41.568Z,100515.48
2018-05-08T12:46:10.015Z,100505.76
2018-05-08T12:48:38.475Z,100510.16
2018-05-08T12:51:06.677Z,100510.65
2018-05-08T12:53:35.019Z,100510.62
2018-05-08T12:56:03.650Z,100499.78
2018-05-08T12:58:31.833Z,100503.83
2018-05-08T13:01:00.165Z,100502.07
2018-05-08T13:03:28.710Z,100500.08
2018-05-08T13:05:56.922Z,100493.70
2018-05-08T13:08:25.353Z,100494.25
2018-05-08T13:10:54.027Z,100490.38
2018-05-08T13:13:22.240Z,100485.66
2018-05-08T13:15:50.453Z,100482.25
2018-05-08T13:18:19.136Z,100477.95
2018-05-08T13:20:47.293Z,100479.97
2018-05-08T13:23:15.725Z,100474.13
2018-05-08T13:25:44.269Z,100467.77
2018-05-08T13:28:12.445Z,100473.95
2018-05-08T13:30:40.879Z,100472.43
2018-05-08T13:33:09.423Z,100463.72
2018-05-08T13:35:37.640Z,100459.05
2018-05-08T13:38:06.036Z,100455.08
2018-05-08T13:40:34.658Z,100456.67
2018-05-08T13:43:02.876Z,100450.58
2018-05-08T13:45:31.184Z,100457.77
2018-05-08T13:47:59.837Z,100450.17
2018-05-08T13:50:28.006Z,100450.96
2018-05-08T13:52:56.387Z,100446.84
2018-05-08T13:55:24.920Z,100449.73
2018-05-08T13:57:53.154Z,100446.27
2018-05-08T14:00:21.609Z,100439.55
2018-05-08T14:02:50.211Z,100433.07
2018-05-08T14:05:18.429Z,100435.64
2018-05-08T14:07:46.712Z,100429.08
2018-05-08T14:10:15.315Z,100424.22
2018-05-08T14:12:43.533Z,100426.11
2018-05-08T14:15:12.024Z,100420.85
2018-05-08T14:17:40.540Z,100422.81
2018-05-08T14:20:08.769Z,100424.49
2018-05-08T14:22:37.029Z,100416.53
2018-05-08T14:25:05.670Z,100409.53
2018-05-08T14:27:33.893Z,100410.58
2018-05-08T14:30:02.217Z,100400.18
2018-05-08T14:32:30.720Z,100405.52
2018-05-08T14:34:58.929Z,100395.79
2018-05-08T14:37:27.360Z,100399.95
2018-05-08T14:39:55.880Z,100395.64
2018-05-08T14:42:24.047Z,100398.62
2018-05-08T14:44:52.473Z,100395.12
2018-05-08T14:47:21.208Z,100395.48
2018-05-08T14:49:49.482Z,100392.57
2018-05-08T14:52:18.568Z,100388.73
2018-05-08T14:54:46.974Z,100387.76
2018-05-08T14:57:15.234Z,100391.02
2018-05-08T14:59:43.420Z,100385.25
2018-05-08T15:02:11.933Z,100383.72
2018-05-08T15:04:40.149Z,100381.03
2018-05-08T15:07:08.332Z,100376.16
2018-05-08T15:09:36.719Z,100375.52
2018-05-08T15:12:04.899Z,100365.05
2018-05-08T15:14:33.204Z,100369.25
2018-05-08T15:17:01.821Z,100365.14
2018-05-08T15:19:30.035Z,100372.83
2018-05-08T15:21:58.429Z,100362.63
2018-05-08T15:24:26.922Z,100362.05
2018-05-08T15:26:55.133Z,100360.35
2018-05-08T15:29:23.495Z,100351.55
2018-05-08T15:31:52.195Z,100349.45
2018-05-08T15:34:20.424Z,100348.69
2018-05-08T15:36:48.871Z,100338.84
2018-05-08T15:39:17.408Z,100332.77
2018-05-08T15:41:45.610Z,100337.16
2018-05-08T15:44:14.011Z,100336.06
2018-05-08T15:46:42.585Z,100336.70
2018-05-08T15:49:10.815Z,100333.83
2018-05-08T15:51:39.010Z,100332.89
2018-05-08T15:54:07.190Z,100332.69
2018-05-08T15:56:35.380Z,100323.23
2018-05-08T15:59:03.593Z,100320.33
2018-05-08T16:01:32.254Z,100313.80
2018-05-08T16:04:00.454Z,100314.62
2018-05-08T16:06:28.697Z,100310.48
2018-05-08T16:08:56.904Z,100313.01
2018-05-08T16:11:25.108Z,100314.39
2018-05-08T16:13:53.707Z,100315.92
2018-05-08T16:16:21.898Z,100312.24
2018-05-08T16:18:50.059Z,100311.84
2018-05-08T16:21:18.419Z,100309.10
2018-05-08T16:23:46.632Z,100308.46
2018-05-08T16:26:14.934Z,100309.68
2018-05-08T16:28:43.129Z,100308.13
2018-05-08T16:31:11.322Z,100308.27
2018-05-08T16:33:39.536Z,100310.48
2018-05-08T16:36:08.150Z,100317.82
2018-05-08T16:38:36.377Z,100310.16
2018-05-08T16:41:04.615Z,100311.33
2018-05-08T16:43:32.888Z,100307.00
2018-05-08T16:46:01.139Z,100312.42
2018-05-08T16:48:29.658Z,100308.24
2018-05-08T16:50:57.804Z,100307.55
2018-05-08T16:53:26.023Z,100308.88
2018-05-08T16:55:54.402Z,100311.02
2018-05-08T16:58:22.598Z,100308.37
2018-05-08T17:00:50.967Z,100305.75
2018-05-08T17:03:19.535Z,100309.05
2018-05-08T17:05:47.769Z,100309.20
2018-05-08T17:08:15.987Z,100301.30
2018-05-08T17:10:44.571Z,100301.11
2018-05-08T17:13:12.792Z,100301.07
2018-05-08T17:15:41.123Z,100296.03
2018-05-08T17:18:09.399Z,100298.52
2018-05-08T17:20:37.579Z,100294.95
2018-05-08T17:23:05.827Z,100298.23
2018-05-08T17:25:34.580Z,100295.91
2018-05-08T17:28:02.771Z,100294.75
2018-05-08T17:30:30.971Z,100289.41
2018-05-08T17:32:59.758Z,100288.16
2018-05-08T17:35:28.006Z,100286.89
2018-05-08T17:37:56.192Z,100282.00
2018-05-08T17:40:24.833Z,100285.98
2018-05-08T17:42:53.026Z,100288.53
2018-05-08T17:45:21.190Z,100280.13
2018-05-08T17:47:49.952Z,100287.09
2018-05-08T17:50:18.135Z,100289.95
2018-05-08T17:52:46.324Z,100286.38
2018-05-08T17:55:15.069Z,100288.19
2018-05-08T17:57:43.315Z,100289.61
2018-05-08T18:00:11.513Z,100289.88
2018-05-08T18:02:40.118Z,100289.39
2018-05-08T18:05:08.300Z,100290.22
2018-05-08T18:07:36.673Z,100294.34
2018-05-08T18:10:05.360Z,100288.91
2018-05-08T18:12:33.549Z,100290.13
2018-05-08T18:15:01.902Z,100292.29
2018-05-08T18:17:30.604Z,100302.33
2018-05-08T18:19:58.814Z,100296.56
2018-05-08T18:22:27.094Z,100294.81
2018-05-08T18:24:55.831Z,100296.74
2018-05-08T18:27:24.017Z,100292.31
2018-05-08T18:29:52.216Z,100291.91
2018-05-08T18:32:22.250Z,100288.69
2018-05-08T18:34:51.198Z,100296.53
2018-05-08T18:37:19.393Z,100301.25
2018-05-08T18:39:47.668Z,100299.75
2018-05-08T18:42:16.378Z,100304.02
2018-05-08T18:44:44.702Z,100303.50
2018-05-08T18:47:13.561Z,100297.58
2018-05-08T18:49:42.692Z,100301.76
2018-05-08T18:52:11.389Z,100300.45
2018-05-08T18:54:39.599Z,100305.58
2018-05-08T18:57:08.409Z,100302.63
2018-05-08T18:59:37.352Z,100304.44
2018-05-08T19:02:06.409Z,100300.78
2018-05-08T19:04:34.639Z,100310.36
2018-05-08T19:07:03.531Z,100306.52
2018-05-08T19:09:32.435Z,100309.41
2018-05-08T19:12:01.320Z,100305.48
2018-05-08T19:14:31.392Z,100308.88
2018-05-08T19:16:59.599Z,100311.80
2018-05-08T19:22:38.442Z,100314.09
2018-05-08T19:25:07.452Z,100309.55
2018-05-08T19:27:36.502Z,100312.62
2018-05-08T19:30:10.430Z,100320.21
2018-05-08T19:32:38.635Z,100321.03
2018-05-08T19:35:13.125Z,100319.37
2018-05-08T19:37:47.625Z,100321.55
2018-05-08T19:40:16.523Z,100320.19
2018-05-08T19:42:44.763Z,100320.17
2018-05-08T19:45:13.473Z,100318.55
2018-05-08T19:47:42.183Z,100326.31
2018-05-08T19:50:10.441Z,100326.45
2018-05-08T19:52:38.653Z,100338.84
2018-05-08T19:55:07.949Z,100335.95
2018-05-08T19:57:36.697Z,100328.89
2018-05-08T20:00:04.906Z,100340.29
2018-05-08T20:02:34.665Z,100339.53
2018-05-08T20:05:03.031Z,100335.39
2018-05-08T20:07:31.863Z,100336.47
2018-05-08T20:10:00.046Z,100338.52
2018-05-08T20:12:28.266Z,100339.60
2018-05-08T20:14:57.020Z,100342.53
2018-05-08T20:17:25.221Z,100341.19
2018-05-08T20:19:54.417Z,100340.17
2018-05-08T20:22:23.184Z,100349.51
2018-05-08T20:24:52.224Z,100339.72
2018-05-08T20:27:20.434Z,100343.08
2018-05-08T20:29:48.635Z,100337.44
2018-05-08T20:32:17.282Z,100340.92
2018-05-08T20:34:45.453Z,100342.09
2018-05-08T20:37:13.674Z,100349.68
2018-05-08T20:39:42.354Z,100347.31
2018-05-08T20:42:10.550Z,100346.58
2018-05-08T20:44:38.813Z,100353.86
2018-05-08T20:47:07.546Z,100346.80
2018-05-08T20:49:35.743Z,100349.61
2018-05-08T20:52:03.946Z,100353.05
2018-05-08T20:54:32.692Z,100350.47
2018-05-08T20:57:00.895Z,100356.70
2018-05-08T20:59:29.152Z,100362.13
2018-05-08T21:01:57.847Z,100358.42
2018-05-08T21:04:26.042Z,100361.65
2018-05-08T21:06:54.213Z,100352.94
2018-05-08T21:09:22.947Z,100350.30
2018-05-08T21:11:51.138Z,100350.52
2018-05-08T21:14:19.331Z,100355.20
2018-05-08T21:16:48.095Z,100356.08
2018-05-08T21:19:16.315Z,100363.34
2018-05-08T21:21:44.584Z,100372.86
2018-05-08T21:24:13.093Z,100364.59
2018-05-08T21:26:41.322Z,100369.34
2018-05-08T21:32:10.511Z,100366.83
2018-05-08T21:34:39.154Z,100367.28
2018-05-08T21:37:07.345Z,100363.36
2018-05-08T21:39:35.915Z,100356.86
2018-05-08T21:42:04.697Z,100364.56
2018-05-08T21:44:32.922Z,100358.95
2018-05-08T21:47:01.112Z,100362.80
2018-05-08T21:49:29.888Z,100359.93
2018-05-08T21:51:58.102Z,100359.37
2018-05-08T21:54:26.321Z,100358.41
2018-05-08T21:56:55.069Z,100349.89
2018-05-08T21:59:23.286Z,100354.78
2018-05-08T22:01:51.473Z,100349.77
2018-05-08T22:04:20.225Z,100362.19
2018-05-08T22:06:48.471Z,100362.73
2018-05-08T22:09:16.676Z,100365.76
2018-05-08T22:11:45.311Z,100368.78
2018-05-08T22:14:13.521Z,100372.05
2018-05-08T22:16:41.739Z,100371.28
2018-05-08T22:19:10.473Z,100363.59
2018-05-08T22:21:38.686Z,100365.66
2018-05-08T22:24:06.931Z,100365.87
2018-05-08T22:26:35.605Z,100365.20
2018-05-08T22:29:03.852Z,100363.09
2018-05-08T22:31:33.010Z,100362.54
2018-05-08T22:34:01.250Z,100359.55
2018-05-08T22:36:29.843Z,100361.45
2018-05-08T22:38:58.060Z,100361.56
2018-05-08T22:41:26.259Z,100364.39
2018-05-08T22:43:54.923Z,100364.90
2018-05-08T22:46:23.133Z,100368.41
2018-05-08T22:48:51.400Z,100373.47
2018-05-08T22:51:20.068Z,100367.41
2018-05-08T22:53:48.250Z,100367.91
2018-05-08T22:56:16.444Z,100373.53
2018-05-08T22:58:45.124Z,100367.41
2018-05-08T23:01:13.329Z,100366.00
2018-05-08T23:03:41.736Z,100370.41
2018-05-08T23:06:10.443Z,100366.34
2018-05-08T23:08:38.640Z,100363.97
2018-05-08T23:11:06.847Z,100365.66
2018-05-08T23:13:35.490Z,100367.28
2018-05-08T23:16:03.685Z,100362.55
2018-05-08T23:18:31.944Z,100361.44
2018-05-08T23:21:00.670Z,100367.14
2018-05-08T23:23:28.862Z,100362.22
2018-05-08T23:25:57.108Z,100358.87
2018-05-08T23:28:25.802Z,100360.28
2018-05-08T23:30:53.995Z,100354.67
2018-05-08T23:33:22.289Z,100349.22
2018-05-08T23:35:51.061Z,100340.70
2018-05-08T23:38:19.260Z,100341.95
2018-05-08T23:40:47.455Z,100343.04
2018-05-08T23:43:16.194Z,100334.06
2018-05-08T23:45:44.388Z,100329.41
2018-05-08T23:48:12.749Z,100331.66
2018-05-08T23:50:41.351Z,100331.52
2018-05-08T23:53:09.530Z,100330.06
2018-05-08T23:55:37.770Z,100326.67
2018-05-08T23:58:06.577Z,100331.27
